Data for 12/04/2006

Time Sea-Level Adjusted Pressure Absolute Pressure Temperature Relative Humidity Dew Point   
(mb) (inHg) (mb) (inHg) (C) (F) (%) (C) (F)
00:05 1027 30.33 856 25.28 -2.9 26.8 67 -8.1 17.5
00:10 1027 30.33 856 25.28 -3 26.6 71 -7.6 18.2
00:15 1027 30.33 856 25.28 -3.2 26.2 70 -7.9 17.7
00:20 1027 30.33 856 25.28 -3.4 25.8 74 -7.5 18.5
00:25 1027 30.33 856 25.28 -3.6 25.4 75 -7.5 18.5
00:30 1027 30.33 856 25.28 -3.7 25.3 74 -7.7 18.2
00:35 1027 30.33 856 25.28 -4.1 24.6 76 -7.7 18.1
00:40 1027 30.33 856 25.28 -4.6 23.8 78 -7.8 18
00:45 1027 30.33 856 25.28 -4.9 23.2 80 -7.8 17.9
00:50 1027 30.33 856 25.28 -5 23.1 79 -8 17.5
00:55 1027 30.33 856 25.28 -5.1 22.9 77 -8.5 16.6
01:00 1027 30.33 856 25.28 -5.1 22.8 75 -8.8 16.1
01:05 1027 30.33 856 25.28 -5 23.1 75 -8.7 16.4
01:10 1027 30.33 856 25.28 -4.9 23.2 76 -8.5 16.6
01:15 1027 30.33 856 25.28 -4.9 23.1 74 -8.9 16
01:20 1027 30.33 856 25.28 -4.8 23.3 74 -8.8 16.1
01:25 1027 30.33 856 25.28 -4.6 23.8 73 -8.7 16.3
01:30 1027 30.33 856 25.28 -4.5 24 72 -8.8 16.2
01:35 1027 30.33 856 25.28 -4.9 23.2 76 -8.5 16.6
01:40 1027 30.33 856 25.28 -5.6 22 79 -8.7 16.3
01:45 1027 30.33 856 25.28 -5.4 22.3 77 -8.9 16.1
01:50 1027 30.33 856 25.28 -4.9 23.2 75 -8.7 16.3
01:55 1027 30.33 856 25.28 -4.5 24 74 -8.5 16.8
02:00 1027 30.33 856 25.28 -4.4 24.1 72 -8.7 16.3
02:05 1027 30.33 856 25.28 -4.4 24.1 73 -8.6 16.5
02:10 1027 30.33 856 25.28 -4.6 23.6 74 -8.5 16.6
02:15 1027 30.33 856 25.28 -4.8 23.4 75 -8.5 16.7
02:20 1027 30.33 856 25.28 -4.7 23.5 74 -8.6 16.5
02:25 1027 30.33 856 25.28 -4.3 24.3 72 -8.6 16.5
02:30 1027 30.33 856 25.28 -3.9 24.9 70 -8.7 16.4
02:35 1027 30.33 856 25.28 -3.6 25.6 67 -8.9 16
02:40 1027 30.33 856 25.28 -3.4 25.9 66 -8.9 16
02:45 1027 30.33 856 25.28 -3.3 26 66 -8.7 16.3
02:50 1027 30.33 856 25.28 -3.5 25.6 72 -7.9 17.8
02:55 1027 30.33 856 25.28 -3.6 25.5 72 -7.9 17.7
03:00 1026 30.3 856 25.28 -3.6 25.5 72 -7.9 17.7
03:05 1026 30.3 856 25.28 -3.4 25.8 71 -7.9 17.7
03:10 1027 30.33 856 25.28 -3.4 25.8 72 -7.8 17.9
03:15 1026 30.3 856 25.28 -3.5 25.7 73 -7.7 18.1
03:20 1026 30.3 856 25.28 -3.6 25.5 71 -8.1 17.4
03:25 1026 30.3 856 25.28 -3.7 25.4 73 -7.9 17.8
03:30 1027 30.33 856 25.28 -3.8 25.2 73 -8 17.7
03:35 1027 30.33 856 25.28 -3.7 25.3 72 -8 17.6
03:40 1026 30.3 856 25.28 -3.7 25.4 73 -7.8 18
03:45 1026 30.3 856 25.28 -3.5 25.7 72 -7.9 17.8
03:50 1026 30.3 856 25.28 -3.4 25.9 72 -7.8 17.9
03:55 1026 30.3 856 25.28 -3.6 25.6 73 -7.7 18.1
04:00 1026 30.3 856 25.28 -3.9 25 75 -7.7 18.2
04:05 1026 30.3 856 25.28 -3.7 25.3 72 -8 17.6
04:10 1026 30.3 856 25.28 -3.4 25.9 71 -8 17.6
04:15 1026 30.3 855 25.25 -3 26.6 69 -7.9 17.8
04:20 1026 30.3 855 25.25 -2.9 26.7 69 -7.8 18
04:25 1026 30.3 855 25.25 -3 26.6 70 -7.8 18
04:30 1026 30.3 855 25.25 -3 26.6 71 -7.5 18.5
04:35 1026 30.3 855 25.25 -3 26.5 72 -7.4 18.7
04:40 1026 30.3 855 25.25 -3.4 26 75 -7.3 18.9
04:45 1026 30.3 855 25.25 -3.8 25.2 77 -7.3 18.8
04:50 1026 30.3 855 25.25 -3.8 25.1 77 -7.3 18.9
04:55 1025 30.27 855 25.25 -3.9 24.9 77 -7.4 18.6
05:00 1025 30.27 854 25.22 -3.8 25.2 73 -7.9 17.8
05:05 1025 30.27 854 25.22 -3.5 25.6 70 -8.2 17.3
05:10 1025 30.27 854 25.22 -3.2 26.2 69 -8.1 17.4
05:15 1025 30.27 854 25.22 -3.2 26.3 68 -8.2 17.2
05:20 1025 30.27 854 25.22 -3.1 26.5 65 -8.8 16.2
05:25 1025 30.27 854 25.22 -3.1 26.5 67 -8.4 16.9
05:30 1025 30.27 854 25.22 -3.2 26.2 71 -7.8 18
05:35 1025 30.27 854 25.22 -3.5 25.6 74 -7.6 18.3
05:40 1025 30.27 854 25.22 -3.7 25.4 73 -7.9 17.8
05:45 1025 30.27 854 25.22 -3.3 26.1 70 -8 17.7
05:50 1025 30.27 854 25.22 -3 26.6 72 -7.4 18.7
05:55 1025 30.27 854 25.22 -3.1 26.4 72 -7.4 18.6
06:00 1025 30.27 854 25.22 -3.1 26.4 71 -7.6 18.3
06:05 1025 30.27 854 25.22 -3.1 26.4 71 -7.6 18.3
06:10 1025 30.27 854 25.22 -3 26.5 68 -8.2 17.3
06:15 1025 30.27 854 25.22 -2.9 26.7 68 -8 17.6
06:20 1025 30.27 854 25.22 -2.8 27 67 -8.2 17.3
06:25 1025 30.27 854 25.22 -2.7 27.1 66 -8.2 17.3
06:30 1025 30.27 854 25.22 -2.8 26.9 65 -8.5 16.7
06:35 1025 30.27 854 25.22 -2.9 26.8 65 -8.6 16.6
06:40 1025 30.27 854 25.22 -3 26.7 70 -7.7 18.2
06:45 1025 30.27 854 25.22 -3 26.6 67 -8.3 17.1
06:50 1025 30.27 854 25.22 -3 26.5 69 -7.9 17.7
06:55 1025 30.27 854 25.22 -3.2 26.2 72 -7.6 18.2
07:00 1025 30.27 854 25.22 -3.3 26 68 -8.4 16.9
07:05 1025 30.27 854 25.22 -3.3 26 68 -8.3 17
07:10 1025 30.27 854 25.22 -3.4 26 70 -8.1 17.4
07:15 1025 30.27 854 25.22 -3.7 25.4 71 -8.2 17.3
07:20 1025 30.27 854 25.22 -4 24.7 78 -7.3 18.8
07:25 1025 30.27 854 25.22 -4.2 24.4 79 -7.4 18.7
07:30 1025 30.27 854 25.22 -4.6 23.7 79 -7.7 18.2
07:35 1025 30.27 854 25.22 -4.6 23.7 77 -8.2 17.3
07:40 1025 30.27 854 25.22 -4.4 24.1 75 -8.2 17.2
07:45 1025 30.27 854 25.22 -4.1 24.6 76 -7.7 18.2
07:50 1025 30.27 854 25.22 -4 24.7 76 -7.7 18.1
07:55 1025 30.27 854 25.22 -3.9 25 75 -7.7 18.1
08:00 1025 30.27 854 25.22 -3.7 25.3 75 -7.5 18.6
08:05 1025 30.27 854 25.22 -3.7 25.3 74 -7.7 18.1
08:10 1025 30.27 854 25.22 -3.5 25.7 72 -7.8 17.9
08:15 1025 30.27 854 25.22 -3.4 25.9 72 -7.7 18.2
08:20 1025 30.27 854 25.22 -3.4 25.8 70 -8.1 17.4
08:25 1025 30.27 854 25.22 -3.4 25.8 70 -8.2 17.2
08:30 1025 30.27 854 25.22 -3.5 25.7 68 -8.5 16.7
08:35 1025 30.27 854 25.22 -3.8 25.3 73 -7.9 17.7
08:40 1025 30.27 854 25.22 -3.8 25.1 71 -8.4 16.9
08:45 1025 30.27 854 25.22 -3.7 25.3 71 -8.2 17.2
08:50 1025 30.27 854 25.22 -3.6 25.5 70 -8.3 17.1
08:55 1025 30.27 854 25.22 -3.7 25.4 70 -8.3 17
09:00 1025 30.27 854 25.22 -3.7 25.3 71 -8.2 17.3
09:05 1025 30.27 854 25.22 -3.9 24.9 74 -7.9 17.8
09:10 1025 30.27 854 25.22 -4.1 24.6 77 -7.6 18.3
09:15 1025 30.27 854 25.22 -4.1 24.6 78 -7.4 18.8
09:20 1025 30.27 854 25.22 -4 24.8 76 -7.6 18.2
09:25 1024 30.24 854 25.22 -4 24.8 76 -7.6 18.4
09:30 1024 30.24 854 25.22 -3.9 24.9 76 -7.5 18.4
09:35 1024 30.24 854 25.22 -3.7 25.4 72 -8.1 17.5
09:40 1024 30.24 854 25.22 -3.3 26 72 -7.7 18.1
09:45 1024 30.24 854 25.22 -2.9 26.8 70 -7.6 18.4
09:50 1024 30.24 854 25.22 -2.7 27.1 69 -7.6 18.3
09:55 1025 30.27 854 25.22 -2.6 27.4 69 -7.5 18.6
10:00 1025 30.27 854 25.22 -2.3 27.8 69 -7.2 19.1
10:05 1025 30.27 854 25.22 -2.1 28.2 65 -7.8 18
10:10 1024 30.24 854 25.22 -2.1 28.2 65 -7.8 18
10:15 1025 30.27 854 25.22 -2 28.4 61 -8.6 16.4
10:20 1025 30.27 854 25.22 -2 28.4 65 -7.8 18
10:25 1024 30.24 854 25.22 -2.3 27.9 69 -7.2 19
10:30 1024 30.24 854 25.22 -2.5 27.5 71 -7.1 19.3
10:35 1024 30.24 854 25.22 -2.7 27.1 68 -7.7 18.1
10:40 1024 30.24 854 25.22 -2.7 27.2 66 -8.1 17.4
10:45 1024 30.24 854 25.22 -2.8 27 68 -7.9 17.9
10:50 1024 30.24 854 25.22 -2.7 27.1 67 -8.1 17.5
10:55 1024 30.24 854 25.22 -2.6 27.3 66 -8.2 17.2
11:00 1024 30.24 854 25.22 -2.5 27.5 65 -8.1 17.4
11:05 1024 30.24 854 25.22 -2.3 27.9 64 -8.2 17.3
11:10 1024 30.24 854 25.22 -2 28.4 62 -8.2 17.2
11:15 1024 30.24 854 25.22 -1.9 28.6 64 -7.8 18
11:20 1024 30.24 853 25.19 -1.8 28.7 65 -7.6 18.4
11:25 1024 30.24 853 25.19 -1.7 28.9 64 -7.6 18.3
11:30 1024 30.24 853 25.19 -1.9 28.7 64 -7.8 18
11:35 1024 30.24 853 25.19 -1.7 28.9 62 -8.1 17.4
11:40 1024 30.24 853 25.19 -1.6 29.1 60 -8.4 16.9
11:45 1024 30.24 853 25.19 -1.5 29.3 60 -8.3 17
11:50 1024 30.24 853 25.19 -1.1 30 58 -8.4 16.9
11:55 1024 30.24 853 25.19 -0.9 30.4 58 -8.1 17.4
12:00 1024 30.24 853 25.19 -0.5 31.2 57 -7.9 17.7
12:05 1024 30.24 853 25.19 -0.4 31.3 57 -7.8 17.9
12:10 1024 30.24 853 25.19 -0.3 31.5 57 -7.8 17.9
12:15 1024 30.24 853 25.19 -0.4 31.3 59 -7.5 18.5
12:20 1024 30.24 853 25.19 -0.3 31.4 60 -7.1 19.1
12:25 1023 30.21 853 25.19 -0.2 31.7 60 -7 19.5
12:30 1023 30.21 853 25.19 0 32 58 -7.3 18.9
12:35 1023 30.21 852 25.16 0.1 32.3 58 -7.2 19
12:40 1023 30.21 852 25.16 0.2 32.3 56 -7.6 18.4
12:45 1023 30.21 852 25.16 0.4 32.7 58 -7 19.4
12:50 1023 30.21 852 25.16 0.7 33.3 56 -7.1 19.1
12:55 1023 30.21 852 25.16 0.8 33.5 55 -7.3 18.9
13:00 1023 30.21 852 25.16 0.5 32.8 56 -7.4 18.7
13:05 1023 30.21 852 25.16 0.2 32.4 56 -7.6 18.3
13:10 1023 30.21 852 25.16 0.4 32.8 56 -7.4 18.7
13:15 1023 30.21 852 25.16 0.6 33.1 56 -7.2 19
13:20 1023 30.21 852 25.16 0.6 33 55 -7.5 18.5
13:25 1023 30.21 852 25.16 0.8 33.4 53 -7.9 17.9
13:30 1023 30.21 852 25.16 0.8 33.4 52 -8.1 17.4
13:35 1022 30.18 852 25.16 0.6 33.1 54 -7.6 18.3
13:40 1022 30.18 852 25.16 0.7 33.3 53 -7.8 17.9
13:45 1022 30.18 852 25.16 0.9 33.7 53 -7.5 18.5
13:50 1022 30.18 852 25.16 0.9 33.5 53 -7.6 18.2
13:55 1022 30.18 852 25.16 0.9 33.6 53 -7.5 18.4
14:00 1022 30.18 851 25.13 0.9 33.7 54 -7.3 18.8
14:05 1022 30.18 851 25.13 1 33.9 53 -7.6 18.4
14:10 1022 30.18 852 25.16 1.1 34 53 -7.5 18.6
14:15 1022 30.18 852 25.16 1.4 34.4 51 -7.6 18.3
14:20 1022 30.18 851 25.13 1.4 34.5 51 -7.6 18.4
14:25 1022 30.18 851 25.13 1.5 34.7 53 -7.1 19.2
14:30 1022 30.18 851 25.13 1.7 35.1 52 -7.2 19
14:35 1022 30.18 851 25.13 1.6 34.8 53 -7 19.4
14:40 1022 30.18 851 25.13 1.5 34.6 54 -6.8 19.8
14:45 1022 30.18 851 25.13 1.5 34.7 56 -6.4 20.5
14:50 1022 30.18 851 25.13 1.5 34.6 58 -6 21.1
14:55 1022 30.18 851 25.13 1.1 34 59 -6 21.2
15:00 1022 30.18 851 25.13 1 33.8 59 -6.2 20.9
15:05 1022 30.18 851 25.13 1 33.8 58 -6.4 20.4
15:10 1022 30.18 851 25.13 0.9 33.7 58 -6.5 20.4
15:15 1022 30.18 851 25.13 1 33.8 57 -6.7 20
15:20 1022 30.18 851 25.13 1.1 33.9 56 -6.8 19.8
15:25 1022 30.18 851 25.13 1.1 34 55 -7 19.4
15:30 1022 30.18 851 25.13 1.2 34.1 55 -6.9 19.6
15:35 1022 30.18 851 25.13 1.2 34.2 55 -6.8 19.8
15:40 1022 30.18 851 25.13 1.3 34.4 57 -6.4 20.5
15:45 1022 30.18 851 25.13 1.3 34.3 55 -6.8 19.7
15:50 1022 30.18 851 25.13 1.4 34.5 55 -6.7 19.9
15:55 1022 30.18 851 25.13 1.3 34.4 55 -6.7 19.9
16:00 1022 30.18 851 25.13 1.3 34.3 55 -6.8 19.7
16:05 1022 30.18 851 25.13 1.1 33.9 58 -6.4 20.5
16:10 1022 30.18 851 25.13 1.1 34.1 55 -7 19.4
16:15 1022 30.18 851 25.13 1.3 34.4 58 -6 21.2
16:20 1022 30.18 851 25.13 1.5 34.8 50 -7.9 17.8
16:25 1022 30.18 851 25.13 1.8 35.3 52 -7.1 19.2
16:30 1022 30.18 851 25.13 2 35.5 50 -7.4 18.6
16:35 1021 30.15 851 25.13 1.7 35.1 54 -6.6 20
16:40 1021 30.15 851 25.13 1.7 35.1 47 -8.6 16.6
16:45 1021 30.15 851 25.13 2.4 36.3 48 -7.7 18.2
16:50 1021 30.15 851 25.13 2.2 36 50 -7.2 19
16:55 1021 30.15 851 25.13 2.1 35.8 50 -7.4 18.8
17:00 1021 30.15 850 25.1 2.3 36.1 51 -6.9 19.5
17:05 1021 30.15 851 25.13 2.2 35.9 56 -5.7 21.8
17:10 1021 30.15 850 25.1 1.5 34.7 61 -5.2 22.7
17:15 1021 30.15 850 25.1 0.8 33.4 61 -5.8 21.5
17:20 1021 30.15 850 25.1 0.5 33 60 -6.3 20.6
17:25 1021 30.15 850 25.1 0.5 33 60 -6.4 20.5
17:30 1021 30.15 850 25.1 0.7 33.3 60 -6.1 21.1
17:35 1021 30.15 850 25.1 0.9 33.5 57 -6.7 20
17:40 1021 30.15 850 25.1 1.2 34.1 54 -7.2 19.1
17:45 1021 30.15 850 25.1 1.4 34.5 55 -6.6 20.1
17:50 1021 30.15 850 25.1 1.6 34.8 52 -7.3 18.9
17:55 1021 30.15 850 25.1 2 35.5 52 -6.9 19.5
18:00 1021 30.15 850 25.1 2.1 35.8 50 -7.3 18.8
18:05 1021 30.15 850 25.1 2.1 35.7 52 -6.8 19.8
18:10 1021 30.15 850 25.1 1.9 35.5 51 -7.3 18.9
18:15 1021 30.15 850 25.1 2.2 35.9 54 -6.1 20.9
18:20 1021 30.15 850 25.1 1.6 34.9 58 -5.8 21.5
18:25 1021 30.15 850 25.1 1.1 34 60 -5.7 21.7
18:30 1021 30.15 850 25.1 0.8 33.5 55 -7.2 19.1
18:35 1021 30.15 850 25.1 0.7 33.3 59 -6.5 20.4
18:40 1021 30.15 850 25.1 0.9 33.7 55 -7 19.4
18:45 1021 30.15 850 25.1 1.1 34 50 -8.1 17.5
18:50 1021 30.15 850 25.1 1.7 35.1 57 -6 21.3
18:55 1021 30.15 850 25.1 1.3 34.3 58 -6.1 21
19:00 1021 30.15 850 25.1 0.6 33 60 -6.4 20.5
19:05 1020 30.12 850 25.1 0.5 32.8 58 -6.8 19.8
19:10 1020 30.12 850 25.1 1 33.8 56 -6.8 19.7
19:15 1020 30.12 850 25.1 1 33.7 55 -7 19.4
19:20 1020 30.12 849 25.07 1.1 33.9 53 -7.4 18.7
19:25 1020 30.12 849 25.07 1.4 34.5 54 -7.1 19.3
19:30 1020 30.12 849 25.07 1.5 34.7 52 -7.3 18.9
19:35 1020 30.12 849 25.07 1.4 34.5 55 -6.7 19.9
19:40 1020 30.12 849 25.07 0.8 33.5 57 -6.8 19.7
19:45 1020 30.12 849 25.07 0.6 33.1 54 -7.7 18.1
19:50 1020 30.12 849 25.07 0.6 33.1 55 -7.3 18.8
19:55 1020 30.12 849 25.07 0.8 33.4 52 -7.9 17.7
20:00 1020 30.12 849 25.07 1.4 34.6 51 -7.6 18.4
20:05 1020 30.12 849 25.07 1.5 34.7 52 -7.3 18.8
20:10 1020 30.12 849 25.07 1.6 34.9 51 -7.5 18.5
20:15 1020 30.12 849 25.07 1.4 34.6 53 -7.1 19.2
20:20 1020 30.12 849 25.07 1.3 34.3 55 -6.8 19.7
20:25 1020 30.12 849 25.07 1.2 34.1 55 -7 19.4
20:30 1020 30.12 849 25.07 1.3 34.3 52 -7.4 18.6
20:35 1019 30.09 849 25.07 2.2 35.9 43 -9.1 15.7
20:40 1019 30.09 849 25.07 2.9 37.2 44 -8.1 17.4
20:45 1019 30.09 849 25.07 3.1 37.6 43 -8.4 16.8
20:50 1019 30.09 849 25.07 3.8 38.8 39 -8.9 15.9
20:55 1019 30.09 848 25.04 4.2 39.5 41 -7.8 17.9
21:00 1019 30.09 848 25.04 4.1 39.3 41 -8.2 17.3
21:05 1019 30.09 849 25.07 4 39.2 43 -7.6 18.3
21:10 1019 30.09 849 25.07 3.1 37.5 46 -7.5 18.5
21:15 1019 30.09 848 25.04 2.4 36.4 46 -8.1 17.5
21:20 1019 30.09 848 25.04 2.7 36.9 43 -8.5 16.7
21:25 1019 30.09 848 25.04 3.3 37.9 42 -8.5 16.6
21:30 1019 30.09 848 25.04 3.6 38.5 41 -8.4 16.8
21:35 1019 30.09 848 25.04 3.5 38.2 41 -8.5 16.8
21:40 1019 30.09 848 25.04 3.4 38.1 42 -8.3 17
21:45 1019 30.09 848 25.04 3.3 38 42 -8.5 16.6
21:50 1019 30.09 848 25.04 3.3 38 41 -8.6 16.5
21:55 1019 30.09 848 25.04 3.3 38 41 -8.7 16.4
22:00 1019 30.09 848 25.04 3.7 38.6 41 -8.5 16.8
22:05 1019 30.09 848 25.04 3.6 38.5 41 -8.4 17
22:10 1019 30.09 848 25.04 3.4 38.1 43 -7.9 17.8
22:15 1019 30.09 848 25.04 3.1 37.5 43 -8.3 17
22:20 1019 30.09 848 25.04 3 37.4 43 -8.4 16.9
22:25 1019 30.09 848 25.04 3.2 37.7 43 -8.2 17.3
22:30 1019 30.09 848 25.04 3 37.4 45 -7.8 17.9
22:35 1019 30.09 848 25.04 2.7 36.8 46 -7.9 17.8
22:40 1019 30.09 848 25.04 2.6 36.7 45 -8.2 17.3
22:45 1019 30.09 848 25.04 2.7 36.9 44 -8.3 17.1
22:50 1019 30.09 848 25.04 2.9 37.3 44 -8.2 17.3
22:55 1019 30.09 848 25.04 2.9 37.2 45 -8 17.5
23:00 1019 30.09 848 25.04 2.8 37.1 41 -9.1 15.6
23:05 1019 30.09 848 25.04 2.9 37.2 41 -9 15.8
23:10 1019 30.09 848 25.04 2.8 37 42 -9 15.8
23:15 1019 30.09 848 25.04 2.6 36.6 43 -8.8 16.1
23:20 1019 30.09 848 25.04 2.4 36.3 43 -9 15.7
23:25 1019 30.09 848 25.04 2.3 36.1 44 -8.9 16
23:30 1019 30.09 848 25.04 2 35.7 45 -8.7 16.3
23:35 1019 30.09 848 25.04 1.7 35.1 45 -8.9 16.1
23:40 1019 30.09 848 25.04 1.6 34.9 47 -8.5 16.6
23:45 1019 30.09 848 25.04 1.8 35.3 47 -8.2 17.2
23:50 1019 30.09 848 25.04 3.1 37.6 42 -8.7 16.3
23:55 1019 30.09 848 25.04 3.9 39.1 42 -8 17.7
24:00 1019 30.09 848 25.04 3.8 38.9 43 -7.6 18.3